Česky Dansk Deutsch English Español Suomi Français Magyar Italiano Nederlands norsk Polski Português svenska Türkçe

 

Het Weer

Ferrara (Italië)

17:55, 18 august 2016 (GMT)

NWNNE
WE
SWSSE
Home            
Ferrara Bologna / Borgo Panigale Dova Area Control Center Punta Marina Forli Vicenza Verona / Villafranca Cervia Venezia / Tessera Treviso / S. Angelo Monte Cimone Treviso / Istrana Porretta Pass Parma Rimini Firenze / Peretola Brescia / Montichia Brescia / Ghedi Passo Della Cisa Piacenza Arezzo Paganella Aviano

Om een weerknop op uw website of weblog te plaatsen, copieer onderstaande code en plak die in uw pagina. In het eerste vakje staat HTML-code, in het tweede vakje UBB-code.


Add to Google

Details

Wind speed:1 bf, 2 kn, 1.0 m/s, 2.3 miles/h, 3.7 km/h
Wind direction:ESE, 120°
Sigtbarheden:Større end 10000 m, 10 km, 32800 ft, 6.2 miles
Clouds:Spredte at 8000 ft, 2438 m
Temperaturen:25°C, 77°F
Gefühlte Temperatur:26°C, 79°F
Dugpunkt:20°C, 68°F
Lufttrykket:1009 hPa, 756.8 mmHg, 29.80 inHg, 0.996 atm
Relative luftfugtigheden:73.8 %
METAR:LIPF 181755Z 12002KT 9999 SCT080 25/20 Q1009

Snelkoppelingen

Actuele weersinformatie van de hele wereld. Voeg locaties toe met het plus (+) symbool. Deze snelkoppelingen kunnen worden toegevoegd aan Google.

Lid van de Technetium groep

website free tracking
StatCounter NetStat W3C Validator

28-09-2022 09:40:34
astro.technetium.be money.technetium.be phote.technetium.be tafeltennistafel.technetium.be www.ligfiets.net